sensor_id;sensor_type;location;lat;lon;timestamp;P1;durP1;ratioP1;P2;durP2;ratioP2
14900;SDS011;7542;49.078;9.194;2023-06-26T00:00:31;4.00;;;3.70;;
14900;SDS011;7542;49.078;9.194;2023-06-26T00:01:34;3.88;;;3.58;;
14900;SDS011;7542;49.078;9.194;2023-06-26T00:02:35;4.00;;;3.63;;
14900;SDS011;7542;49.078;9.194;2023-06-26T00:03:37;4.03;;;3.70;;
14900;SDS011;7542;49.078;9.194;2023-06-26T00:04:39;4.10;;;3.80;;
14900;SDS011;7542;49.078;9.194;2023-06-26T00:05:43;4.75;;;3.72;;
14900;SDS011;7542;49.078;9.194;2023-06-26T00:06:45;3.67;;;3.47;;
14900;SDS011;7542;49.078;9.194;2023-06-26T00:07:47;4.03;;;3.72;;
14900;SDS011;7542;49.078;9.194;2023-06-26T00:08:49;4.18;;;3.88;;
14900;SDS011;7542;49.078;9.194;2023-06-26T00:09:51;3.83;;;3.63;;
14900;SDS011;7542;49.078;9.194;2023-06-26T00:10:53;3.90;;;3.60;;
14900;SDS011;7542;49.078;9.194;2023-06-26T00:11:55;4.00;;;3.70;;
14900;SDS011;7542;49.078;9.194;2023-06-26T00:12:57;4.63;;;4.22;;
14900;SDS011;7542;49.078;9.194;2023-06-26T00:13:59;3.88;;;3.58;;
14900;SDS011;7542;49.078;9.194;2023-06-26T00:15:02;4.00;;;3.70;;
14900;SDS011;7542;49.078;9.194;2023-06-26T00:16:04;4.53;;;4.03;;
14900;SDS011;7542;49.078;9.194;2023-06-26T00:17:06;3.83;;;3.60;;
14900;SDS011;7542;49.078;9.194;2023-06-26T00:18:08;4.03;;;3.75;;
14900;SDS011;7542;49.078;9.194;2023-06-26T00:19:10;4.90;;;3.88;;
14900;SDS011;7542;49.078;9.194;2023-06-26T00:20:12;3.58;;;3.38;;
14900;SDS011;7542;49.078;9.194;2023-06-26T00:21:18;4.65;;;3.88;;
14900;SDS011;7542;49.078;9.194;2023-06-26T00:22:21;3.80;;;3.60;;
14900;SDS011;7542;49.078;9.194;2023-06-26T00:23:23;3.90;;;3.60;;
14900;SDS011;7542;49.078;9.194;2023-06-26T00:24:25;3.70;;;3.50;;
14900;SDS011;7542;49.078;9.194;2023-06-26T00:25:26;4.28;;;3.97;;
14900;SDS011;7542;49.078;9.194;2023-06-26T00:26:28;3.70;;;3.50;;
14900;SDS011;7542;49.078;9.194;2023-06-26T00:27:30;3.60;;;3.40;;
14900;SDS011;7542;49.078;9.194;2023-06-26T00:28:32;4.15;;;3.85;;
14900;SDS011;7542;49.078;9.194;2023-06-26T00:29:34;3.65;;;3.45;;
14900;SDS011;7542;49.078;9.194;2023-06-26T00:30:36;3.88;;;3.67;;
14900;SDS011;7542;49.078;9.194;2023-06-26T00:31:39;4.30;;;3.90;;
14900;SDS011;7542;49.078;9.194;2023-06-26T00:32:41;4.47;;;4.00;;
14900;SDS011;7542;49.078;9.194;2023-06-26T00:33:43;3.88;;;3.58;;
14900;SDS011;7542;49.078;9.194;2023-06-26T00:34:45;4.45;;;4.15;;
14900;SDS011;7542;49.078;9.194;2023-06-26T00:35:48;4.00;;;3.80;;
14900;SDS011;7542;49.078;9.194;2023-06-26T00:36:50;4.50;;;4.20;;
14900;SDS011;7542;49.078;9.194;2023-06-26T00:37:51;4.30;;;3.97;;
14900;SDS011;7542;49.078;9.194;2023-06-26T00:38:53;3.88;;;3.58;;
14900;SDS011;7542;49.078;9.194;2023-06-26T00:39:55;4.47;;;4.00;;
14900;SDS011;7542;49.078;9.194;2023-06-26T00:40:57;4.10;;;3.80;;
14900;SDS011;7542;49.078;9.194;2023-06-26T00:41:59;4.22;;;3.92;;
14900;SDS011;7542;49.078;9.194;2023-06-26T00:43:01;3.90;;;3.70;;
14900;SDS011;7542;49.078;9.194;2023-06-26T00:44:04;4.13;;;3.83;;
14900;SDS011;7542;49.078;9.194;2023-06-26T00:45:06;4.65;;;4.25;;
14900;SDS011;7542;49.078;9.194;2023-06-26T00:46:09;4.15;;;3.85;;
14900;SDS011;7542;49.078;9.194;2023-06-26T00:47:15;3.83;;;3.53;;
14900;SDS011;7542;49.078;9.194;2023-06-26T00:48:19;3.67;;;3.45;;
14900;SDS011;7542;49.078;9.194;2023-06-26T00:49:21;3.92;;;3.72;;
14900;SDS011;7542;49.078;9.194;2023-06-26T00:50:23;3.75;;;3.55;;
14900;SDS011;7542;49.078;9.194;2023-06-26T00:51:26;4.10;;;3.80;;
14900;SDS011;7542;49.078;9.194;2023-06-26T00:52:30;3.90;;;3.60;;
14900;SDS011;7542;49.078;9.194;2023-06-26T00:53:33;3.78;;;3.58;;
14900;SDS011;7542;49.078;9.194;2023-06-26T00:54:35;4.03;;;3.72;;
14900;SDS011;7542;49.078;9.194;2023-06-26T00:55:37;4.25;;;3.83;;
14900;SDS011;7542;49.078;9.194;2023-06-26T00:56:39;4.20;;;3.90;;
14900;SDS011;7542;49.078;9.194;2023-06-26T00:57:41;3.92;;;3.63;;
14900;SDS011;7542;49.078;9.194;2023-06-26T00:58:44;3.97;;;3.78;;
14900;SDS011;7542;49.078;9.194;2023-06-26T00:59:47;3.83;;;3.63;;
14900;SDS011;7542;49.078;9.194;2023-06-26T01:00:50;4.50;;;4.15;;
14900;SDS011;7542;49.078;9.194;2023-06-26T01:01:53;4.43;;;4.03;;
14900;SDS011;7542;49.078;9.194;2023-06-26T01:02:55;4.57;;;4.18;;
14900;SDS011;7542;49.078;9.194;2023-06-26T01:04:01;4.32;;;3.92;;
14900;SDS011;7542;49.078;9.194;2023-06-26T01:05:03;4.20;;;3.90;;
14900;SDS011;7542;49.078;9.194;2023-06-26T01:06:07;4.10;;;3.80;;
14900;SDS011;7542;49.078;9.194;2023-06-26T01:07:13;4.68;;;4.28;;
14900;SDS011;7542;49.078;9.194;2023-06-26T01:08:20;4.63;;;4.22;;
14900;SDS011;7542;49.078;9.194;2023-06-26T01:09:23;4.15;;;3.85;;
14900;SDS011;7542;49.078;9.194;2023-06-26T01:10:26;4.40;;;4.10;;
14900;SDS011;7542;49.078;9.194;2023-06-26T01:11:31;4.47;;;4.07;;
14900;SDS011;7542;49.078;9.194;2023-06-26T01:12:33;4.40;;;4.07;;
14900;SDS011;7542;49.078;9.194;2023-06-26T01:13:35;4.53;;;4.13;;
14900;SDS011;7542;49.078;9.194;2023-06-26T01:14:38;4.80;;;4.40;;
14900;SDS011;7542;49.078;9.194;2023-06-26T01:15:40;4.70;;;4.30;;
14900;SDS011;7542;49.078;9.194;2023-06-26T01:16:43;4.85;;;3.90;;
14900;SDS011;7542;49.078;9.194;2023-06-26T01:17:49;4.10;;;3.80;;
14900;SDS011;7542;49.078;9.194;2023-06-26T01:18:52;3.90;;;3.70;;
14900;SDS011;7542;49.078;9.194;2023-06-26T01:19:57;4.22;;;3.92;;
14900;SDS011;7542;49.078;9.194;2023-06-26T01:21:06;3.95;;;3.75;;
14900;SDS011;7542;49.078;9.194;2023-06-26T01:23:31;4.13;;;3.83;;
14900;SDS011;7542;49.078;9.194;2023-06-26T01:26:44;4.50;;;4.10;;
14900;SDS011;7542;49.078;9.194;2023-06-26T01:27:51;4.10;;;3.80;;
14900;SDS011;7542;49.078;9.194;2023-06-26T01:28:56;4.43;;;4.13;;
14900;SDS011;7542;49.078;9.194;2023-06-26T01:30:02;4.18;;;3.97;;
14900;SDS011;7542;49.078;9.194;2023-06-26T01:31:06;4.25;;;3.95;;
14900;SDS011;7542;49.078;9.194;2023-06-26T01:32:09;7.13;;;4.10;;
14900;SDS011;7542;49.078;9.194;2023-06-26T01:33:12;4.60;;;4.20;;
14900;SDS011;7542;49.078;9.194;2023-06-26T01:34:15;4.10;;;3.67;;
14900;SDS011;7542;49.078;9.194;2023-06-26T01:35:19;4.55;;;4.15;;
14900;SDS011;7542;49.078;9.194;2023-06-26T01:36:21;4.40;;;4.10;;
14900;SDS011;7542;49.078;9.194;2023-06-26T01:37:23;3.90;;;3.63;;
14900;SDS011;7542;49.078;9.194;2023-06-26T01:38:25;7.70;;;4.03;;
14900;SDS011;7542;49.078;9.194;2023-06-26T01:39:27;4.38;;;4.03;;
14900;SDS011;7542;49.078;9.194;2023-06-26T01:40:29;4.43;;;4.05;;
14900;SDS011;7542;49.078;9.194;2023-06-26T01:41:31;4.28;;;3.97;;
14900;SDS011;7542;49.078;9.194;2023-06-26T01:42:33;4.75;;;4.40;;
14900;SDS011;7542;49.078;9.194;2023-06-26T01:45:36;4.22;;;3.92;;
14900;SDS011;7542;49.078;9.194;2023-06-26T01:47:49;4.55;;;3.90;;
14900;SDS011;7542;49.078;9.194;2023-06-26T01:48:55;4.63;;;4.22;;
14900;SDS011;7542;49.078;9.194;2023-06-26T01:50:25;4.32;;;4.03;;
14900;SDS011;7542;49.078;9.194;2023-06-26T01:51:35;4.75;;;4.35;;
14900;SDS011;7542;49.078;9.194;2023-06-26T01:52:46;4.43;;;4.03;;
14900;SDS011;7542;49.078;9.194;2023-06-26T01:54:02;4.40;;;4.10;;
14900;SDS011;7542;49.078;9.194;2023-06-26T01:55:15;4.18;;;3.88;;
14900;SDS011;7542;49.078;9.194;2023-06-26T01:56:29;4.43;;;4.13;;
14900;SDS011;7542;49.078;9.194;2023-06-26T01:57:32;4.30;;;4.00;;
14900;SDS011;7542;49.078;9.194;2023-06-26T01:58:37;4.38;;;3.95;;
14900;SDS011;7542;49.078;9.194;2023-06-26T01:59:46;4.40;;;4.10;;
14900;SDS011;7542;49.078;9.194;2023-06-26T02:00:49;4.40;;;4.10;;
14900;SDS011;7542;49.078;9.194;2023-06-26T02:01:52;4.32;;;4.00;;
14900;SDS011;7542;49.078;9.194;2023-06-26T02:02:54;4.40;;;4.10;;
14900;SDS011;7542;49.078;9.194;2023-06-26T02:03:56;5.15;;;4.50;;
14900;SDS011;7542;49.078;9.194;2023-06-26T02:04:58;4.65;;;4.35;;
14900;SDS011;7542;49.078;9.194;2023-06-26T02:06:00;4.75;;;4.40;;
14900;SDS011;7542;49.078;9.194;2023-06-26T02:07:02;4.43;;;4.13;;
14900;SDS011;7542;49.078;9.194;2023-06-26T02:08:04;4.10;;;3.90;;
14900;SDS011;7542;49.078;9.194;2023-06-26T02:09:07;5.18;;;4.78;;
14900;SDS011;7542;49.078;9.194;2023-06-26T02:10:09;4.85;;;4.50;;
14900;SDS011;7542;49.078;9.194;2023-06-26T02:11:12;4.70;;;4.40;;
14900;SDS011;7542;49.078;9.194;2023-06-26T02:12:14;5.25;;;4.78;;
14900;SDS011;7542;49.078;9.194;2023-06-26T02:13:15;5.03;;;4.53;;
14900;SDS011;7542;49.078;9.194;2023-06-26T02:14:17;5.00;;;4.60;;
14900;SDS011;7542;49.078;9.194;2023-06-26T02:15:19;4.72;;;4.32;;
14900;SDS011;7542;49.078;9.194;2023-06-26T02:16:21;5.25;;;4.72;;
14900;SDS011;7542;49.078;9.194;2023-06-26T02:17:24;4.80;;;4.50;;
14900;SDS011;7542;49.078;9.194;2023-06-26T02:18:26;4.60;;;4.30;;
14900;SDS011;7542;49.078;9.194;2023-06-26T02:19:28;4.85;;;4.45;;
14900;SDS011;7542;49.078;9.194;2023-06-26T02:20:30;4.97;;;4.57;;
14900;SDS011;7542;49.078;9.194;2023-06-26T02:21:32;4.88;;;4.57;;
14900;SDS011;7542;49.078;9.194;2023-06-26T02:22:34;4.85;;;4.45;;
14900;SDS011;7542;49.078;9.194;2023-06-26T02:23:35;4.43;;;4.07;;
14900;SDS011;7542;49.078;9.194;2023-06-26T02:24:38;5.28;;;4.78;;
14900;SDS011;7542;49.078;9.194;2023-06-26T02:25:40;4.60;;;4.20;;
14900;SDS011;7542;49.078;9.194;2023-06-26T02:26:42;4.68;;;4.28;;
14900;SDS011;7542;49.078;9.194;2023-06-26T02:27:44;4.60;;;4.20;;
14900;SDS011;7542;49.078;9.194;2023-06-26T02:28:46;4.30;;;4.00;;
14900;SDS011;7542;49.078;9.194;2023-06-26T02:29:48;5.38;;;4.88;;
14900;SDS011;7542;49.078;9.194;2023-06-26T02:30:50;4.75;;;4.35;;
14900;SDS011;7542;49.078;9.194;2023-06-26T02:31:52;6.40;;;4.72;;
14900;SDS011;7542;49.078;9.194;2023-06-26T02:32:53;4.82;;;4.35;;
14900;SDS011;7542;49.078;9.194;2023-06-26T02:33:55;4.90;;;4.50;;
14900;SDS011;7542;49.078;9.194;2023-06-26T02:34:57;5.07;;;4.68;;
14900;SDS011;7542;49.078;9.194;2023-06-26T02:35:59;4.95;;;4.55;;
14900;SDS011;7542;49.078;9.194;2023-06-26T02:37:01;4.70;;;4.32;;
14900;SDS011;7542;49.078;9.194;2023-06-26T02:38:03;4.90;;;4.38;;
14900;SDS011;7542;49.078;9.194;2023-06-26T02:39:05;4.65;;;4.25;;
14900;SDS011;7542;49.078;9.194;2023-06-26T02:40:07;4.88;;;4.47;;
14900;SDS011;7542;49.078;9.194;2023-06-26T02:41:11;4.90;;;4.50;;
14900;SDS011;7542;49.078;9.194;2023-06-26T02:42:13;4.80;;;4.40;;
14900;SDS011;7542;49.078;9.194;2023-06-26T02:43:15;5.15;;;4.70;;
14900;SDS011;7542;49.078;9.194;2023-06-26T02:44:17;4.75;;;4.35;;
14900;SDS011;7542;49.078;9.194;2023-06-26T02:45:19;4.28;;;4.00;;
14900;SDS011;7542;49.078;9.194;2023-06-26T02:46:21;5.30;;;4.90;;
14900;SDS011;7542;49.078;9.194;2023-06-26T02:47:23;4.75;;;4.35;;
14900;SDS011;7542;49.078;9.194;2023-06-26T02:48:25;5.25;;;4.80;;
14900;SDS011;7542;49.078;9.194;2023-06-26T02:49:27;4.97;;;4.63;;
14900;SDS011;7542;49.078;9.194;2023-06-26T02:50:29;4.60;;;4.20;;
14900;SDS011;7542;49.078;9.194;2023-06-26T02:51:34;4.50;;;4.20;;
14900;SDS011;7542;49.078;9.194;2023-06-26T02:52:36;5.07;;;4.68;;
14900;SDS011;7542;49.078;9.194;2023-06-26T02:53:38;4.72;;;4.38;;
14900;SDS011;7542;49.078;9.194;2023-06-26T02:54:39;4.72;;;4.32;;
14900;SDS011;7542;49.078;9.194;2023-06-26T02:55:41;5.13;;;4.72;;
14900;SDS011;7542;49.078;9.194;2023-06-26T02:56:43;4.68;;;4.35;;
14900;SDS011;7542;49.078;9.194;2023-06-26T02:57:48;4.63;;;4.32;;
14900;SDS011;7542;49.078;9.194;2023-06-26T02:58:50;4.85;;;4.45;;
14900;SDS011;7542;49.078;9.194;2023-06-26T02:59:52;4.78;;;4.43;;
14900;SDS011;7542;49.078;9.194;2023-06-26T03:00:54;4.57;;;4.28;;
14900;SDS011;7542;49.078;9.194;2023-06-26T03:01:55;5.07;;;4.57;;
14900;SDS011;7542;49.078;9.194;2023-06-26T03:02:58;8.43;;;4.90;;
14900;SDS011;7542;49.078;9.194;2023-06-26T03:04:00;4.90;;;4.50;;
14900;SDS011;7542;49.078;9.194;2023-06-26T03:05:03;5.60;;;4.55;;
14900;SDS011;7542;49.078;9.194;2023-06-26T03:06:06;5.50;;;4.82;;
14900;SDS011;7542;49.078;9.194;2023-06-26T03:07:09;4.70;;;4.30;;
14900;SDS011;7542;49.078;9.194;2023-06-26T03:08:11;5.03;;;4.60;;
14900;SDS011;7542;49.078;9.194;2023-06-26T03:09:12;6.28;;;4.43;;
14900;SDS011;7542;49.078;9.194;2023-06-26T03:10:14;5.15;;;4.75;;
14900;SDS011;7542;49.078;9.194;2023-06-26T03:11:16;5.68;;;4.63;;
14900;SDS011;7542;49.078;9.194;2023-06-26T03:12:18;4.43;;;4.03;;
14900;SDS011;7542;49.078;9.194;2023-06-26T03:13:20;4.93;;;4.47;;
14900;SDS011;7542;49.078;9.194;2023-06-26T03:14:22;4.90;;;4.50;;
14900;SDS011;7542;49.078;9.194;2023-06-26T03:15:24;5.32;;;4.93;;
14900;SDS011;7542;49.078;9.194;2023-06-26T03:16:26;4.35;;;4.05;;
14900;SDS011;7542;49.078;9.194;2023-06-26T03:17:28;4.93;;;4.53;;
14900;SDS011;7542;49.078;9.194;2023-06-26T03:18:30;5.05;;;4.57;;
14900;SDS011;7542;49.078;9.194;2023-06-26T03:19:31;5.13;;;4.70;;
14900;SDS011;7542;49.078;9.194;2023-06-26T03:20:33;5.30;;;4.80;;
14900;SDS011;7542;49.078;9.194;2023-06-26T03:21:36;5.40;;;5.00;;
14900;SDS011;7542;49.078;9.194;2023-06-26T03:22:37;4.95;;;4.55;;
14900;SDS011;7542;49.078;9.194;2023-06-26T03:23:39;5.18;;;4.78;;
14900;SDS011;7542;49.078;9.194;2023-06-26T03:24:41;5.13;;;4.63;;
14900;SDS011;7542;49.078;9.194;2023-06-26T03:25:47;5.38;;;4.82;;
14900;SDS011;7542;49.078;9.194;2023-06-26T03:26:49;5.13;;;4.63;;
14900;SDS011;7542;49.078;9.194;2023-06-26T03:27:52;5.32;;;4.82;;
14900;SDS011;7542;49.078;9.194;2023-06-26T03:28:54;5.03;;;4.63;;
14900;SDS011;7542;49.078;9.194;2023-06-26T03:29:56;4.93;;;4.53;;
14900;SDS011;7542;49.078;9.194;2023-06-26T03:30:58;5.63;;;5.13;;
14900;SDS011;7542;49.078;9.194;2023-06-26T03:32:00;5.00;;;4.60;;
14900;SDS011;7542;49.078;9.194;2023-06-26T03:33:02;5.22;;;4.57;;
14900;SDS011;7542;49.078;9.194;2023-06-26T03:34:04;6.53;;;4.50;;
14900;SDS011;7542;49.078;9.194;2023-06-26T03:35:06;4.95;;;4.60;;
14900;SDS011;7542;49.078;9.194;2023-06-26T03:36:09;5.10;;;4.70;;
14900;SDS011;7542;49.078;9.194;2023-06-26T03:37:10;5.63;;;5.10;;
14900;SDS011;7542;49.078;9.194;2023-06-26T03:38:12;5.03;;;4.63;;
14900;SDS011;7542;49.078;9.194;2023-06-26T03:39:14;5.10;;;4.63;;
14900;SDS011;7542;49.078;9.194;2023-06-26T03:40:16;5.22;;;4.78;;
14900;SDS011;7542;49.078;9.194;2023-06-26T03:41:18;5.53;;;4.90;;
14900;SDS011;7542;49.078;9.194;2023-06-26T03:42:20;5.45;;;4.95;;
14900;SDS011;7542;49.078;9.194;2023-06-26T03:43:21;4.83;;;4.43;;
14900;SDS011;7542;49.078;9.194;2023-06-26T03:44:23;5.22;;;4.72;;
14900;SDS011;7542;49.078;9.194;2023-06-26T03:45:25;5.07;;;4.68;;
14900;SDS011;7542;49.078;9.194;2023-06-26T03:46:28;5.57;;;5.07;;
14900;SDS011;7542;49.078;9.194;2023-06-26T03:47:30;4.63;;;4.32;;
14900;SDS011;7542;49.078;9.194;2023-06-26T03:48:32;5.18;;;4.78;;
14900;SDS011;7542;49.078;9.194;2023-06-26T03:49:34;4.93;;;4.45;;
14900;SDS011;7542;49.078;9.194;2023-06-26T03:50:36;5.25;;;4.78;;
14900;SDS011;7542;49.078;9.194;2023-06-26T03:51:38;5.03;;;4.53;;
14900;SDS011;7542;49.078;9.194;2023-06-26T03:52:40;4.50;;;4.10;;
14900;SDS011;7542;49.078;9.194;2023-06-26T03:53:42;5.32;;;4.65;;
14900;SDS011;7542;49.078;9.194;2023-06-26T03:54:44;5.53;;;4.95;;
14900;SDS011;7542;49.078;9.194;2023-06-26T03:55:46;5.30;;;4.83;;
14900;SDS011;7542;49.078;9.194;2023-06-26T03:56:48;4.55;;;4.20;;
14900;SDS011;7542;49.078;9.194;2023-06-26T03:57:50;4.95;;;4.55;;
14900;SDS011;7542;49.078;9.194;2023-06-26T03:58:52;5.07;;;4.68;;
14900;SDS011;7542;49.078;9.194;2023-06-26T03:59:54;5.78;;;4.50;;
14900;SDS011;7542;49.078;9.194;2023-06-26T04:00:55;6.53;;;4.53;;
14900;SDS011;7542;49.078;9.194;2023-06-26T04:01:59;5.35;;;4.85;;
14900;SDS011;7542;49.078;9.194;2023-06-26T04:03:00;6.28;;;4.70;;
14900;SDS011;7542;49.078;9.194;2023-06-26T04:04:04;4.88;;;4.47;;
14900;SDS011;7542;49.078;9.194;2023-06-26T04:05:06;5.25;;;4.80;;
14900;SDS011;7542;49.078;9.194;2023-06-26T04:06:08;5.18;;;4.68;;
14900;SDS011;7542;49.078;9.194;2023-06-26T04:07:10;5.82;;;5.30;;
14900;SDS011;7542;49.078;9.194;2023-06-26T04:08:12;4.97;;;4.65;;
14900;SDS011;7542;49.078;9.194;2023-06-26T04:09:14;5.65;;;5.15;;
14900;SDS011;7542;49.078;9.194;2023-06-26T04:10:16;5.10;;;4.70;;
14900;SDS011;7542;49.078;9.194;2023-06-26T04:11:18;6.53;;;4.57;;
14900;SDS011;7542;49.078;9.194;2023-06-26T04:12:20;6.00;;;5.13;;
14900;SDS011;7542;49.078;9.194;2023-06-26T04:13:22;4.85;;;4.53;;
14900;SDS011;7542;49.078;9.194;2023-06-26T04:14:24;5.10;;;4.60;;
14900;SDS011;7542;49.078;9.194;2023-06-26T04:15:26;5.35;;;4.85;;
14900;SDS011;7542;49.078;9.194;2023-06-26T04:16:28;5.43;;;4.95;;
14900;SDS011;7542;49.078;9.194;2023-06-26T04:17:30;4.97;;;4.57;;
14900;SDS011;7542;49.078;9.194;2023-06-26T04:18:32;5.20;;;4.70;;
14900;SDS011;7542;49.078;9.194;2023-06-26T04:19:34;5.20;;;4.70;;
14900;SDS011;7542;49.078;9.194;2023-06-26T04:20:41;5.30;;;4.82;;
14900;SDS011;7542;49.078;9.194;2023-06-26T04:22:25;5.38;;;4.82;;
14900;SDS011;7542;49.078;9.194;2023-06-26T04:23:27;5.27;;;4.87;;
14900;SDS011;7542;49.078;9.194;2023-06-26T04:24:29;5.18;;;4.47;;
14900;SDS011;7542;49.078;9.194;2023-06-26T04:25:30;4.97;;;4.57;;
14900;SDS011;7542;49.078;9.194;2023-06-26T04:26:32;4.80;;;4.47;;
14900;SDS011;7542;49.078;9.194;2023-06-26T04:27:34;5.32;;;4.78;;
14900;SDS011;7542;49.078;9.194;2023-06-26T04:28:39;5.17;;;4.67;;
14900;SDS011;7542;49.078;9.194;2023-06-26T04:29:41;4.68;;;4.30;;
14900;SDS011;7542;49.078;9.194;2023-06-26T04:30:43;4.63;;;4.22;;
14900;SDS011;7542;49.078;9.194;2023-06-26T04:31:45;5.10;;;4.70;;
14900;SDS011;7542;49.078;9.194;2023-06-26T04:32:48;5.23;;;4.83;;
14900;SDS011;7542;49.078;9.194;2023-06-26T04:33:50;5.63;;;5.13;;
14900;SDS011;7542;49.078;9.194;2023-06-26T04:34:52;5.70;;;5.20;;
14900;SDS011;7542;49.078;9.194;2023-06-26T04:35:54;5.68;;;5.10;;
14900;SDS011;7542;49.078;9.194;2023-06-26T04:36:56;5.22;;;4.80;;
14900;SDS011;7542;49.078;9.194;2023-06-26T04:37:58;5.30;;;4.90;;
14900;SDS011;7542;49.078;9.194;2023-06-26T04:38:59;5.47;;;5.07;;
14900;SDS011;7542;49.078;9.194;2023-06-26T04:40:02;5.07;;;4.68;;
14900;SDS011;7542;49.078;9.194;2023-06-26T04:41:05;5.37;;;4.87;;
14900;SDS011;7542;49.078;9.194;2023-06-26T04:42:07;5.57;;;5.00;;
14900;SDS011;7542;49.078;9.194;2023-06-26T04:43:09;5.60;;;5.10;;
14900;SDS011;7542;49.078;9.194;2023-06-26T04:44:11;5.50;;;5.00;;
14900;SDS011;7542;49.078;9.194;2023-06-26T04:45:13;5.22;;;4.75;;
14900;SDS011;7542;49.078;9.194;2023-06-26T04:46:15;5.93;;;5.33;;
14900;SDS011;7542;49.078;9.194;2023-06-26T04:47:17;5.40;;;4.90;;
14900;SDS011;7542;49.078;9.194;2023-06-26T04:48:19;5.45;;;5.05;;
14900;SDS011;7542;49.078;9.194;2023-06-26T04:49:22;5.40;;;4.85;;
14900;SDS011;7542;49.078;9.194;2023-06-26T04:50:24;5.10;;;4.70;;
14900;SDS011;7542;49.078;9.194;2023-06-26T04:51:26;4.88;;;4.47;;
14900;SDS011;7542;49.078;9.194;2023-06-26T04:52:30;5.30;;;4.80;;
14900;SDS011;7542;49.078;9.194;2023-06-26T04:53:32;4.70;;;4.30;;
14900;SDS011;7542;49.078;9.194;2023-06-26T04:54:33;5.22;;;4.68;;
14900;SDS011;7542;49.078;9.194;2023-06-26T04:55:35;4.88;;;4.47;;
14900;SDS011;7542;49.078;9.194;2023-06-26T04:56:40;5.22;;;4.68;;
14900;SDS011;7542;49.078;9.194;2023-06-26T04:57:41;5.10;;;4.60;;
14900;SDS011;7542;49.078;9.194;2023-06-26T04:58:43;5.27;;;4.80;;
14900;SDS011;7542;49.078;9.194;2023-06-26T04:59:45;5.20;;;4.80;;
14900;SDS011;7542;49.078;9.194;2023-06-26T05:00:47;4.63;;;4.23;;
14900;SDS011;7542;49.078;9.194;2023-06-26T05:01:49;4.90;;;4.50;;
14900;SDS011;7542;49.078;9.194;2023-06-26T05:02:51;5.07;;;4.68;;
14900;SDS011;7542;49.078;9.194;2023-06-26T05:04:02;5.27;;;4.73;;
14900;SDS011;7542;49.078;9.194;2023-06-26T05:05:04;7.80;;;4.93;;
14900;SDS011;7542;49.078;9.194;2023-06-26T05:06:07;4.93;;;4.53;;
14900;SDS011;7542;49.078;9.194;2023-06-26T05:07:10;5.33;;;4.83;;
14900;SDS011;7542;49.078;9.194;2023-06-26T05:08:15;4.85;;;4.38;;
14900;SDS011;7542;49.078;9.194;2023-06-26T05:09:27;4.80;;;4.50;;
14900;SDS011;7542;49.078;9.194;2023-06-26T05:10:29;5.05;;;4.65;;
14900;SDS011;7542;49.078;9.194;2023-06-26T05:11:31;5.00;;;4.60;;
14900;SDS011;7542;49.078;9.194;2023-06-26T05:12:33;5.38;;;4.68;;
14900;SDS011;7542;49.078;9.194;2023-06-26T05:13:35;5.20;;;4.75;;
14900;SDS011;7542;49.078;9.194;2023-06-26T05:14:37;5.45;;;4.95;;
14900;SDS011;7542;49.078;9.194;2023-06-26T05:15:39;4.90;;;4.40;;
14900;SDS011;7542;49.078;9.194;2023-06-26T05:16:40;4.65;;;4.22;;
14900;SDS011;7542;49.078;9.194;2023-06-26T05:17:42;5.63;;;5.13;;
14900;SDS011;7542;49.078;9.194;2023-06-26T05:18:44;5.25;;;4.70;;
14900;SDS011;7542;49.078;9.194;2023-06-26T05:19:46;7.25;;;5.00;;
14900;SDS011;7542;49.078;9.194;2023-06-26T05:20:48;5.32;;;4.82;;
14900;SDS011;7542;49.078;9.194;2023-06-26T05:21:50;5.75;;;5.13;;
14900;SDS011;7542;49.078;9.194;2023-06-26T05:22:54;5.65;;;5.20;;
14900;SDS011;7542;49.078;9.194;2023-06-26T05:23:57;4.68;;;4.28;;
14900;SDS011;7542;49.078;9.194;2023-06-26T05:24:59;5.38;;;4.85;;
14900;SDS011;7542;49.078;9.194;2023-06-26T05:26:05;5.15;;;4.65;;
14900;SDS011;7542;49.078;9.194;2023-06-26T05:27:08;5.80;;;5.10;;
14900;SDS011;7542;49.078;9.194;2023-06-26T05:28:11;4.88;;;4.47;;
14900;SDS011;7542;49.078;9.194;2023-06-26T05:29:13;6.20;;;4.40;;
14900;SDS011;7542;49.078;9.194;2023-06-26T05:30:16;5.90;;;5.13;;
14900;SDS011;7542;49.078;9.194;2023-06-26T05:31:19;5.50;;;5.00;;
14900;SDS011;7542;49.078;9.194;2023-06-26T05:32:21;5.00;;;4.55;;
14900;SDS011;7542;49.078;9.194;2023-06-26T05:33:24;5.38;;;4.82;;
14900;SDS011;7542;49.078;9.194;2023-06-26T05:34:27;5.20;;;4.80;;
14900;SDS011;7542;49.078;9.194;2023-06-26T05:35:30;5.20;;;4.70;;
14900;SDS011;7542;49.078;9.194;2023-06-26T05:36:33;4.90;;;4.50;;
14900;SDS011;7542;49.078;9.194;2023-06-26T05:37:37;4.87;;;4.47;;
14900;SDS011;7542;49.078;9.194;2023-06-26T05:38:39;6.85;;;4.70;;
14900;SDS011;7542;49.078;9.194;2023-06-26T05:39:41;4.75;;;4.35;;
14900;SDS011;7542;49.078;9.194;2023-06-26T05:40:45;4.45;;;4.10;;
14900;SDS011;7542;49.078;9.194;2023-06-26T05:41:47;6.45;;;4.85;;
14900;SDS011;7542;49.078;9.194;2023-06-26T05:42:49;5.30;;;4.80;;
14900;SDS011;7542;49.078;9.194;2023-06-26T05:43:51;5.05;;;4.55;;
14900;SDS011;7542;49.078;9.194;2023-06-26T05:44:55;5.40;;;4.90;;
14900;SDS011;7542;49.078;9.194;2023-06-26T05:45:57;5.60;;;4.97;;
14900;SDS011;7542;49.078;9.194;2023-06-26T05:46:59;5.07;;;4.65;;
14900;SDS011;7542;49.078;9.194;2023-06-26T05:48:01;5.25;;;4.75;;
14900;SDS011;7542;49.078;9.194;2023-06-26T05:49:04;5.57;;;5.07;;
14900;SDS011;7542;49.078;9.194;2023-06-26T05:50:07;5.57;;;5.00;;
14900;SDS011;7542;49.078;9.194;2023-06-26T05:51:11;5.32;;;4.75;;
14900;SDS011;7542;49.078;9.194;2023-06-26T05:52:13;7.07;;;5.97;;
14900;SDS011;7542;49.078;9.194;2023-06-26T05:53:18;5.18;;;4.75;;
14900;SDS011;7542;49.078;9.194;2023-06-26T05:54:20;5.40;;;4.90;;
14900;SDS011;7542;49.078;9.194;2023-06-26T05:55:25;9.80;;;5.00;;
14900;SDS011;7542;49.078;9.194;2023-06-26T05:56:27;9.45;;;5.25;;
14900;SDS011;7542;49.078;9.194;2023-06-26T05:57:30;10.75;;;4.78;;
14900;SDS011;7542;49.078;9.194;2023-06-26T05:58:32;6.55;;;4.68;;
14900;SDS011;7542;49.078;9.194;2023-06-26T05:59:35;12.23;;;4.82;;
14900;SDS011;7542;49.078;9.194;2023-06-26T06:00:41;10.35;;;4.93;;
14900;SDS011;7542;49.078;9.194;2023-06-26T06:01:44;12.48;;;5.00;;
14900;SDS011;7542;49.078;9.194;2023-06-26T06:02:46;9.02;;;5.15;;
14900;SDS011;7542;49.078;9.194;2023-06-26T06:03:47;13.20;;;5.30;;
14900;SDS011;7542;49.078;9.194;2023-06-26T06:04:50;6.97;;;5.18;;
14900;SDS011;7542;49.078;9.194;2023-06-26T06:05:52;5.53;;;5.00;;
14900;SDS011;7542;49.078;9.194;2023-06-26T06:06:54;5.47;;;4.70;;
14900;SDS011;7542;49.078;9.194;2023-06-26T06:07:56;7.22;;;4.68;;
14900;SDS011;7542;49.078;9.194;2023-06-26T06:08:58;5.57;;;4.97;;
14900;SDS011;7542;49.078;9.194;2023-06-26T06:10:00;6.10;;;5.18;;
14900;SDS011;7542;49.078;9.194;2023-06-26T06:11:05;8.50;;;4.82;;
14900;SDS011;7542;49.078;9.194;2023-06-26T06:12:07;5.05;;;4.55;;
14900;SDS011;7542;49.078;9.194;2023-06-26T06:13:09;6.60;;;4.82;;
14900;SDS011;7542;49.078;9.194;2023-06-26T06:14:11;4.70;;;4.30;;
14900;SDS011;7542;49.078;9.194;2023-06-26T06:15:13;6.35;;;5.00;;
14900;SDS011;7542;49.078;9.194;2023-06-26T06:16:14;5.68;;;4.53;;
14900;SDS011;7542;49.078;9.194;2023-06-26T06:17:16;5.10;;;4.60;;
14900;SDS011;7542;49.078;9.194;2023-06-26T06:18:18;4.55;;;4.25;;
14900;SDS011;7542;49.078;9.194;2023-06-26T06:19:21;5.07;;;4.68;;
14900;SDS011;7542;49.078;9.194;2023-06-26T06:20:23;5.40;;;4.78;;
14900;SDS011;7542;49.078;9.194;2023-06-26T06:21:25;11.70;;;5.00;;
14900;SDS011;7542;49.078;9.194;2023-06-26T06:22:27;8.35;;;4.88;;
14900;SDS011;7542;49.078;9.194;2023-06-26T06:23:29;7.88;;;5.05;;
14900;SDS011;7542;49.078;9.194;2023-06-26T06:24:31;6.22;;;4.93;;
14900;SDS011;7542;49.078;9.194;2023-06-26T06:25:33;5.80;;;5.00;;
14900;SDS011;7542;49.078;9.194;2023-06-26T06:26:35;5.88;;;4.88;;
14900;SDS011;7542;49.078;9.194;2023-06-26T06:27:37;5.30;;;4.80;;
14900;SDS011;7542;49.078;9.194;2023-06-26T06:28:39;7.70;;;4.97;;
14900;SDS011;7542;49.078;9.194;2023-06-26T06:29:41;8.07;;;4.75;;
14900;SDS011;7542;49.078;9.194;2023-06-26T06:30:43;5.78;;;5.03;;